createdAt,value
2023-04-10T00:02:51.071Z,7.01
2023-04-10T00:07:08.734Z,7.01
2023-04-10T00:11:27.934Z,6.99
2023-04-10T00:15:45.565Z,6.92
2023-04-10T00:20:04.651Z,6.92
2023-04-10T00:24:22.167Z,6.94
2023-04-10T00:28:40.289Z,6.88
2023-04-10T00:32:58.474Z,6.98
2023-04-10T00:37:16.087Z,7.09
2023-04-10T00:41:33.626Z,7.18
2023-04-10T00:45:51.422Z,7.16
2023-04-10T00:50:09.358Z,7.18
2023-04-10T00:54:27.449Z,7.13
2023-04-10T00:58:45.646Z,7.09
2023-04-10T01:03:04.177Z,7.08
2023-04-10T01:07:39.975Z,7.12
2023-04-10T01:12:32.385Z,7.12
2023-04-10T01:16:58.795Z,7.11
2023-04-10T01:21:17.425Z,7.12
2023-04-10T01:25:52.721Z,7.12
2023-04-10T01:30:16.277Z,7.15
2023-04-10T01:34:44.107Z,7.11
2023-04-10T01:39:02.689Z,7.12
2023-04-10T01:43:22.674Z,7.05
2023-04-10T01:47:40.416Z,6.92
2023-04-10T01:52:00.702Z,6.94
2023-04-10T01:56:18.412Z,6.95
2023-04-10T02:00:43.624Z,6.91
2023-04-10T02:05:01.758Z,6.83
2023-04-10T02:09:35.997Z,6.84
2023-04-10T02:13:56.636Z,6.87
2023-04-10T02:18:17.183Z,6.81
2023-04-10T02:22:35.046Z,6.83
2023-04-10T02:26:53.841Z,6.75
2023-04-10T02:31:11.819Z,6.75
2023-04-10T02:35:29.532Z,6.68
2023-04-10T02:39:47.261Z,6.70
2023-04-10T02:44:05.003Z,6.71
2023-04-10T02:48:22.794Z,6.61
2023-04-10T02:52:41.989Z,6.67
2023-04-10T02:57:00.591Z,6.74
2023-04-10T03:01:18.155Z,6.87
2023-04-10T03:05:36.062Z,6.85
2023-04-10T03:09:53.579Z,6.81
2023-04-10T03:14:11.698Z,6.74
2023-04-10T03:18:30.074Z,6.73
2023-04-10T03:22:48.573Z,6.71
2023-04-10T03:27:06.514Z,6.68
2023-04-10T03:31:24.642Z,6.75
2023-04-10T03:35:43.071Z,6.84
2023-04-10T03:40:01.131Z,6.80
2023-04-10T03:44:19.107Z,6.88
2023-04-10T03:48:36.804Z,6.84
2023-04-10T03:52:54.347Z,6.80
2023-04-10T03:57:11.966Z,6.70
2023-04-10T04:01:29.574Z,6.73
2023-04-10T04:05:47.332Z,6.73
2023-04-10T04:10:05.551Z,6.73
2023-04-10T04:14:24.348Z,6.75
2023-04-10T04:18:41.878Z,6.83
2023-04-10T04:22:59.536Z,6.81
2023-04-10T04:27:17.131Z,6.88
2023-04-10T04:31:34.960Z,6.92
2023-04-10T04:35:52.622Z,6.95
2023-04-10T04:40:11.061Z,6.92
2023-04-10T04:44:28.592Z,7.02
2023-04-10T04:48:46.313Z,7.06
2023-04-10T04:53:05.484Z,7.06
2023-04-10T04:57:25.113Z,7.05
2023-04-10T05:01:42.696Z,7.15
2023-04-10T05:06:00.540Z,7.13
2023-04-10T05:10:18.216Z,7.13
2023-04-10T05:14:36.369Z,7.06
2023-04-10T05:18:54.423Z,7.06
2023-04-10T05:23:11.641Z,7.05
2023-04-10T05:27:29.314Z,7.15
2023-04-10T05:31:47.038Z,7.26
2023-04-10T05:36:05.263Z,7.39
2023-04-10T05:40:22.726Z,7.62
2023-04-10T05:44:40.614Z,7.68
2023-04-10T05:48:58.757Z,7.65
2023-04-10T05:53:18.393Z,7.77
2023-04-10T05:57:36.014Z,8.10
2023-04-10T06:01:53.410Z,8.46
2023-04-10T06:06:11.212Z,8.77
2023-04-10T06:10:31.208Z,9.42
2023-04-10T06:14:48.851Z,9.71
2023-04-10T06:19:06.897Z,9.62
2023-04-10T06:23:24.644Z,9.60
2023-04-10T06:27:42.252Z,9.53
2023-04-10T06:32:01.129Z,9.03
2023-04-10T06:36:18.850Z,9.18
2023-04-10T06:40:36.755Z,9.20
2023-04-10T06:44:54.271Z,9.09
2023-04-10T06:49:11.966Z,8.98
2023-04-10T06:53:29.795Z,9.08
2023-04-10T06:57:47.640Z,9.50
2023-04-10T07:02:05.670Z,9.91
2023-04-10T07:06:23.844Z,9.89
2023-04-10T07:10:41.497Z,10.15
2023-04-10T07:15:00.239Z,9.47
2023-04-10T07:19:17.799Z,10.25
2023-04-10T07:23:36.279Z,10.53
2023-04-10T07:27:53.779Z,10.38
2023-04-10T07:32:11.886Z,10.15
2023-04-10T07:36:29.686Z,10.88
2023-04-10T07:40:47.522Z,11.71
2023-04-10T07:45:05.891Z,12.24
2023-04-10T07:49:24.083Z,13.01
2023-04-10T07:53:42.147Z,12.32
2023-04-10T07:57:59.635Z,12.06
2023-04-10T08:02:17.355Z,11.97
2023-04-10T08:06:35.030Z,11.66
2023-04-10T08:10:52.566Z,10.89
2023-04-10T08:15:11.149Z,11.23
2023-04-10T08:19:28.671Z,10.99
2023-04-10T08:23:49.314Z,11.32
2023-04-10T08:28:06.800Z,11.87
2023-04-10T08:32:26.954Z,12.15
2023-04-10T08:36:44.522Z,12.44
2023-04-10T08:41:02.433Z,12.75
2023-04-10T08:45:20.034Z,13.81
2023-04-10T08:49:46.235Z,13.59
2023-04-10T08:54:11.020Z,13.18
2023-04-10T08:58:28.766Z,12.94
2023-04-10T09:02:46.511Z,12.30
2023-04-10T09:07:04.156Z,12.37
2023-04-10T09:11:24.830Z,11.70
2023-04-10T09:16:01.466Z,12.67
2023-04-10T09:20:24.129Z,13.14
2023-04-10T09:24:44.994Z,13.47
2023-04-10T09:29:05.740Z,14.12
2023-04-10T09:33:30.424Z,14.12
2023-04-10T09:37:48.172Z,14.55
2023-04-10T09:42:05.780Z,14.49
2023-04-10T09:46:28.984Z,14.77
2023-04-10T09:50:47.048Z,15.71
2023-04-10T09:55:07.788Z,18.08
2023-04-10T09:59:25.681Z,17.53
2023-04-10T10:03:44.332Z,15.90
2023-04-10T10:08:02.059Z,15.20
2023-04-10T10:12:24.856Z,14.81
2023-04-10T10:16:52.956Z,15.32
2023-04-10T10:21:10.709Z,15.39
2023-04-10T10:25:29.092Z,15.60
2023-04-10T10:29:47.988Z,15.28
2023-04-10T10:34:09.484Z,15.31
2023-04-10T10:38:28.505Z,15.45
2023-04-10T10:43:04.627Z,16.04
2023-04-10T10:47:28.980Z,16.91
2023-04-10T10:51:51.976Z,16.39
2023-04-10T10:56:18.608Z,16.61
2023-04-10T11:00:59.230Z,20.75
2023-04-10T11:05:52.591Z,22.24
2023-04-10T11:10:10.185Z,20.07
2023-04-10T11:14:31.429Z,20.53
2023-04-10T11:19:02.852Z,22.91
2023-04-10T11:23:28.093Z,21.92
2023-04-10T11:27:51.908Z,20.11
2023-04-10T11:32:10.729Z,18.42
2023-04-10T11:36:28.701Z,18.66
2023-04-10T11:41:13.918Z,19.44
2023-04-10T11:45:31.509Z,23.30
2023-04-10T11:49:56.134Z,24.82
2023-04-10T11:54:17.027Z,27.94
2023-04-10T11:58:35.540Z,28.10
2023-04-10T12:02:53.477Z,25.71
2023-04-10T12:07:11.886Z,28.63
2023-04-10T12:11:29.889Z,29.70
2023-04-10T12:15:47.760Z,34.27
2023-04-10T12:20:06.514Z,31.00
2023-04-10T12:24:50.546Z,36.03
2023-04-10T12:29:09.462Z,31.89
2023-04-10T12:33:27.291Z,22.83
2023-04-10T12:37:52.882Z,19.31
2023-04-10T12:42:19.703Z,22.40
2023-04-10T12:46:38.396Z,31.07
2023-04-10T12:50:56.172Z,37.69
2023-04-10T12:55:21.793Z,36.80
2023-04-10T12:59:42.617Z,35.89
2023-04-10T13:04:00.898Z,27.93
2023-04-10T13:08:18.483Z,28.11
2023-04-10T13:12:38.498Z,26.12
2023-04-10T13:16:56.104Z,22.69
2023-04-10T13:21:18.718Z,21.69
2023-04-10T13:25:40.506Z,25.32
2023-04-10T13:29:58.175Z,32.27
2023-04-10T13:34:15.954Z,35.50
2023-04-10T13:38:34.393Z,33.36
2023-04-10T13:42:51.992Z,25.22
2023-04-10T13:47:09.812Z,22.14
2023-04-10T13:51:28.053Z,20.69
2023-04-10T13:55:47.995Z,19.90
2023-04-10T14:00:07.618Z,29.20
2023-04-10T14:04:25.415Z,32.73
2023-04-10T14:08:42.983Z,32.36
2023-04-10T14:13:00.703Z,30.78
2023-04-10T14:17:18.236Z,26.53
2023-04-10T14:21:38.281Z,22.20
2023-04-10T14:25:55.818Z,20.37
2023-04-10T14:30:14.178Z,19.49
2023-04-10T14:34:31.678Z,18.53
2023-04-10T14:38:49.616Z,17.59
2023-04-10T14:43:08.152Z,16.81
2023-04-10T14:47:25.924Z,16.41
2023-04-10T14:51:45.146Z,15.94
2023-04-10T14:56:13.432Z,15.05
2023-04-10T15:00:33.566Z,14.06
2023-04-10T15:04:51.156Z,13.98
2023-04-10T15:09:08.857Z,14.04
2023-04-10T15:13:26.687Z,13.93
2023-04-10T15:17:44.677Z,13.07
2023-04-10T15:22:02.170Z,12.63
2023-04-10T15:26:21.533Z,12.43
2023-04-10T15:30:39.133Z,12.08
2023-04-10T15:34:57.091Z,11.88
2023-04-10T15:39:14.604Z,11.74
2023-04-10T15:43:32.159Z,11.97
2023-04-10T15:47:49.838Z,11.95
2023-04-10T15:52:07.824Z,11.87
2023-04-10T15:56:25.515Z,11.56
2023-04-10T16:00:43.433Z,11.32
2023-04-10T16:05:00.696Z,11.08
2023-04-10T16:13:42.229Z,10.63
2023-04-10T16:18:01.895Z,10.56
2023-04-10T16:22:19.516Z,10.54
2023-04-10T16:26:37.288Z,10.34
2023-04-10T16:30:56.301Z,10.23
2023-04-10T16:35:14.431Z,9.99
2023-04-10T16:39:32.376Z,9.70
2023-04-10T16:43:50.190Z,9.51
2023-04-10T16:48:07.929Z,9.42
2023-04-10T16:52:25.750Z,9.27
2023-04-10T16:56:43.511Z,9.32
2023-04-10T17:01:13.095Z,9.47
2023-04-10T17:05:36.791Z,9.74
2023-04-10T17:09:54.314Z,9.78
2023-04-10T17:14:14.582Z,9.55
2023-04-10T17:18:32.662Z,9.18
2023-04-10T17:22:50.402Z,8.77
2023-04-10T17:27:08.103Z,8.22
2023-04-10T17:31:25.852Z,7.87
2023-04-10T17:35:43.795Z,7.46
2023-04-10T17:40:01.688Z,7.05
2023-04-10T17:44:20.203Z,6.73
2023-04-10T17:48:39.248Z,6.40
2023-04-10T17:52:56.958Z,6.19
2023-04-10T17:57:14.745Z,5.98
2023-04-10T18:01:32.968Z,5.74
2023-04-10T18:05:50.823Z,5.53
2023-04-10T18:10:11.319Z,5.54
2023-04-10T18:14:29.111Z,5.56
2023-04-10T18:18:47.098Z,5.73
2023-04-10T18:23:06.686Z,6.03
2023-04-10T18:27:24.448Z,6.78
2023-04-10T18:31:42.371Z,6.95
2023-04-10T18:36:00.157Z,7.05
2023-04-10T18:40:18.237Z,7.32
2023-04-10T18:44:35.841Z,7.55
2023-04-10T18:48:56.305Z,7.67
2023-04-10T18:53:14.260Z,7.55
2023-04-10T18:57:32.132Z,7.20
2023-04-10T19:01:49.844Z,6.89
2023-04-10T19:06:08.894Z,6.56
2023-04-10T19:10:27.048Z,6.09
2023-04-10T19:14:44.946Z,5.78
2023-04-10T19:19:02.811Z,5.46
2023-04-10T19:23:21.642Z,5.16
2023-04-10T19:27:40.588Z,4.98
2023-04-10T19:31:59.242Z,4.73
2023-04-10T19:36:19.111Z,4.57
2023-04-10T19:40:37.785Z,4.41
2023-04-10T19:44:55.452Z,4.36
2023-04-10T19:49:13.645Z,4.39
2023-04-10T19:53:31.190Z,4.26
2023-04-10T19:57:49.960Z,4.05
2023-04-10T20:02:10.609Z,3.91
2023-04-10T20:06:27.784Z,3.89
2023-04-10T20:10:45.477Z,3.85
2023-04-10T20:15:04.652Z,4.05
2023-04-10T20:19:22.355Z,4.22
2023-04-10T20:23:40.163Z,4.22
2023-04-10T20:27:57.685Z,4.18
2023-04-10T20:32:15.401Z,4.27
2023-04-10T20:36:34.709Z,4.37
2023-04-10T20:40:52.843Z,4.54
2023-04-10T20:45:11.176Z,4.71
2023-04-10T20:49:28.875Z,4.91
2023-04-10T20:53:46.388Z,5.01
2023-04-10T20:58:04.126Z,5.12
2023-04-10T21:02:21.831Z,5.12
2023-04-10T21:06:39.627Z,4.98
2023-04-10T21:10:59.754Z,4.61
2023-04-10T21:15:17.412Z,4.20
2023-04-10T21:19:34.974Z,3.88
2023-04-10T21:23:52.863Z,3.61
2023-04-10T21:28:10.682Z,3.35
2023-04-10T21:32:28.364Z,3.13
2023-04-10T21:36:46.160Z,3.11
2023-04-10T21:41:03.852Z,2.92
2023-04-10T21:45:21.635Z,2.71
2023-04-10T21:49:39.154Z,2.60
2023-04-10T21:53:57.128Z,2.53
2023-04-10T21:58:14.640Z,2.42
2023-04-10T22:02:32.454Z,2.40
2023-04-10T22:06:50.251Z,2.28
2023-04-10T22:11:08.813Z,2.13
2023-04-10T22:15:26.387Z,2.10
2023-04-10T22:19:44.117Z,1.99
2023-04-10T22:24:01.745Z,1.88
2023-04-10T22:28:19.418Z,1.92
2023-04-10T22:32:37.125Z,1.92
2023-04-10T22:36:54.768Z,1.88
2023-04-10T22:41:12.380Z,1.84
2023-04-10T22:45:30.074Z,1.85
2023-04-10T22:49:47.677Z,1.80
2023-04-10T22:54:05.450Z,1.77
2023-04-10T22:58:23.352Z,1.90
2023-04-10T23:02:41.175Z,1.87
2023-04-10T23:06:59.161Z,1.74
2023-04-10T23:11:16.785Z,1.77
2023-04-10T23:15:34.872Z,2.12
2023-04-10T23:19:52.262Z,2.42
2023-04-10T23:24:09.917Z,2.54
2023-04-10T23:28:27.951Z,2.40
2023-04-10T23:32:45.585Z,2.45
2023-04-10T23:37:03.190Z,2.53
2023-04-10T23:41:21.834Z,2.83
2023-04-10T23:45:39.512Z,3.16
2023-04-10T23:49:57.807Z,3.42
2023-04-10T23:54:16.022Z,3.64
2023-04-10T23:58:33.643Z,3.85
